Palmer, Alaska
Current Conditions -  °F | °C
As of 8:53 AM on Saturday 20 Dec 2014 (Local Time) from PAAQ Reporting Station
Scattered Clouds Scattered Clouds  
Wind Chill: 13°   Ceiling: Unl
Heat Index: 13°   Visibility: 10mi
Dew Point:   Wind: 0mph
Humidity: 84%   Direction: NA
Pressure: 28.94"   Gusts: NA
Location:  61.6°N, 149.11°W
Report Text: PAAQ 201753Z 00000KT 10SM SCT200 M11/M13 A2894 RMK AO2 SLP804 I6000 T11061128 11039 21122 56015
Loading
Personal Weather Stations






























Interactive Weather Map New forecast layout! Learn more

10-Day Weather Forecast

Advertisements
Track Severe Weather on mobile